Federal Oshima — VRVY8 — position and weather

sailwx.info

Track history (hours):
 
Tides and Currents Weather Stations Pressure Air Temp Water Temp Dewpoint Dewpoint Depression Visibility Wind Speed Wind Dir Waves Ship Positions

Federal Oshima

Last reported at 2014-Aug-01 15:31 UTC. Time now 2014-Aug-01 15:56 UTC.
Position N 34°37' E 135°15'.

Length 200 m; draft 7.3 m.

Type: Cargo ship. MMSI: 477675000.

Date/timePositionNaut miles runAvg speedWind from/ knotsBaromVisibWave heightAir tempDewpointWater temp
2014-Aug-01 15:31N 34°37' E 135°15'0 0.0
2014-Aug-01 14:25N 34°37' E 135°15'0 0.0
2014-Aug-01 13:31N 34°37' E 135°15'0 0.0
2014-Aug-01 12:31N 34°37' E 135°15'0 0.0
2014-Aug-01 11:31N 34°37' E 135°15'0 0.0
2014-Aug-01 10:31N 34°37' E 135°15'0 0.2
2014-Aug-01 09:33N 34°37' E 135°15'7 7.2
2014-Aug-01 08:33N 34°30' E 135°13'1312.6
2014-Aug-01 07:33N 34°21' E 135°03'1111.0
2014-Aug-01 06:33N 34°10' E 135°00'10 9.9
2014-Aug-01 05:33N 34°00' E 134°60'184 8.7
2014-Jul-31 08:29N 35°01' E 138°30'0 0.0
2014-Jul-31 06:18N 35°01' E 138°30'0 0.0
2014-Jul-31 05:30N 35°01' E 138°30'0 0.0
2014-Jul-31 04:30N 35°01' E 138°30'0 0.0
2014-Jul-31 03:12N 35°01' E 138°30'0 0.0
2014-Jul-31 02:30N 35°01' E 138°30'0 0.0
2014-Jul-31 00:24N 35°01' E 138°30'0 0.0
2014-Jul-30 23:24N 35°01' E 138°30'0 0.0
2014-Jul-30 22:18N 35°01' E 138°30'0 0.0
2014-Jul-30 21:30N 35°01' E 138°30'0 0.0
2014-Jul-30 20:30N 35°01' E 138°30'0 0.0
2014-Jul-30 16:12N 35°01' E 138°30'0 0.0
2014-Jul-30 07:24N 35°01' E 138°30'0 0.0
2014-Jul-30 06:18N 35°01' E 138°30'5 0.5
2014-Jul-29 21:06N 34°60' E 138°35'  
2014-Jul-26 13:14N 35°02' E 138°33'6 9.1
2014-Jul-26 12:33N 34°56' E 138°35'35 6.9
2014-Jul-26 07:31N 34°50' E 139°17'1210.7
2014-Jul-26 06:26N 34°57' E 139°28'1010.9
2014-Jul-26 05:33N 35°03' E 139°37'1211.9
2014-Jul-26 04:33N 35°12' E 139°46'1010.3
2014-Jul-26 03:34N 35°22' E 139°43'4 3.7
2014-Jul-26 02:31N 35°26' E 139°43'0 0.1
2014-Jul-26 01:31N 35°26' E 139°43'0 0.1
2014-Jul-26 00:31N 35°26' E 139°43'0 0.0
2014-Jul-25 23:31N 35°26' E 139°43'0 0.0
2014-Jul-25 22:31N 35°26' E 139°43'0 0.0
2014-Jul-25 21:31N 35°26' E 139°43'0 0.1
2014-Jul-25 20:31N 35°26' E 139°43'0 0.1
2014-Jul-25 19:31N 35°26' E 139°43'0 0.1
2014-Jul-25 18:31N 35°26' E 139°43'1 0.9
2014-Jul-25 17:33N 35°26' E 139°44'4 4.3
2014-Jul-25 16:33N 35°30' E 139°45'1 0.8
2014-Jul-25 15:33N 35°30' E 139°44'0 0.0
2014-Jul-25 14:33N 35°30' E 139°44'0 0.0
2014-Jul-25 13:33N 35°30' E 139°44'0 0.0
2014-Jul-25 12:33N 35°30' E 139°44'0 0.0
2014-Jul-25 11:33N 35°30' E 139°44'0 0.0
2014-Jul-25 10:33N 35°30' E 139°44'0 0.0
2014-Jul-25 09:33N 35°30' E 139°44'0 0.0
2014-Jul-25 08:33N 35°30' E 139°44'0 0.0
2014-Jul-25 07:33N 35°30' E 139°44'0 0.0
2014-Jul-25 06:33N 35°30' E 139°44'0 0.0
2014-Jul-25 05:33N 35°30' E 139°44'0 0.0
2014-Jul-25 04:33N 35°30' E 139°44'0 0.0
2014-Jul-25 03:30N 35°30' E 139°44'0 0.0
2014-Jul-25 02:33N 35°30' E 139°44'0 0.0
2014-Jul-25 01:33N 35°30' E 139°44'0 0.0
2014-Jul-25 00:30N 35°30' E 139°44'0 0.0
2014-Jul-24 23:33N 35°30' E 139°44'0 0.0
2014-Jul-24 22:33N 35°30' E 139°44'0 0.0
2014-Jul-24 21:33N 35°30' E 139°44'0 0.0
2014-Jul-24 20:33N 35°30' E 139°44'0 0.0
2014-Jul-24 19:33N 35°30' E 139°44'0 0.0
2014-Jul-24 18:33N 35°30' E 139°44'0 0.0
2014-Jul-24 17:33N 35°30' E 139°44'0 0.0
2014-Jul-24 16:30N 35°30' E 139°44'0 0.0
2014-Jul-24 15:33N 35°30' E 139°44'0 0.0
2014-Jul-24 14:33N 35°30' E 139°44'0 0.0
2014-Jul-24 13:33N 35°30' E 139°44'0 0.0
2014-Jul-24 12:33N 35°30' E 139°44'0 0.0
2014-Jul-24 11:33N 35°30' E 139°44'0 0.0
2014-Jul-24 10:33N 35°30' E 139°44'0 0.0
2014-Jul-24 09:33N 35°30' E 139°44'0 0.0
2014-Jul-24 08:33N 35°30' E 139°44'0 0.0
2014-Jul-24 07:33N 35°30' E 139°44'0 0.0
2014-Jul-24 06:33N 35°30' E 139°44'0 0.0
2014-Jul-24 05:30N 35°30' E 139°44'0 0.0
2014-Jul-24 04:33N 35°30' E 139°44'0 0.0
2014-Jul-24 03:33N 35°30' E 139°44'0 0.0
2014-Jul-24 02:27N 35°30' E 139°44'0 0.0
2014-Jul-24 01:33N 35°30' E 139°44'0 0.0
2014-Jul-24 00:30N 35°30' E 139°44'0 0.0
2014-Jul-23 23:33N 35°30' E 139°44'0 0.0
2014-Jul-23 22:33N 35°30' E 139°44'0 0.0
2014-Jul-23 21:33N 35°30' E 139°44'0 0.0
2014-Jul-23 20:33N 35°30' E 139°44'0 0.0
2014-Jul-23 19:33N 35°30' E 139°44'0 0.0
2014-Jul-23 18:33N 35°30' E 139°44'0 0.0
2014-Jul-23 17:33N 35°30' E 139°44'0 0.0
2014-Jul-23 16:33N 35°30' E 139°44'0 0.0
2014-Jul-23 15:33N 35°30' E 139°44'0 0.0
2014-Jul-23 14:33N 35°30' E 139°44'0 0.0
2014-Jul-23 13:33N 35°30' E 139°44'0 0.0
2014-Jul-23 12:33N 35°30' E 139°44'0 0.0
2014-Jul-23 11:33N 35°30' E 139°44'0 0.0
2014-Jul-23 10:33N 35°30' E 139°44'0 0.0
2014-Jul-23 09:33N 35°30' E 139°44'0 0.0
2014-Jul-23 08:30N 35°30' E 139°44'0 0.0
2014-Jul-23 07:33N 35°30' E 139°44'0 0.0
2014-Jul-23 06:33N 35°30' E 139°44'0 0.0
2014-Jul-23 05:33N 35°30' E 139°44'0 0.0
2014-Jul-23 04:33N 35°30' E 139°44'0 0.0
2014-Jul-23 03:33N 35°30' E 139°44'0 0.0
2014-Jul-23 02:33N 35°30' E 139°44'0 0.0
2014-Jul-23 01:33N 35°30' E 139°44'0 0.0
2014-Jul-23 00:33N 35°30' E 139°44'0 0.0
2014-Jul-22 23:33N 35°30' E 139°44'0 0.0
2014-Jul-22 22:33N 35°30' E 139°44'0 0.0
2014-Jul-22 21:33N 35°30' E 139°44'0 0.0
2014-Jul-22 20:33N 35°30' E 139°44'0 0.0
2014-Jul-22 19:33N 35°30' E 139°44'0 0.0
2014-Jul-22 18:33N 35°30' E 139°44'0 0.0
2014-Jul-22 17:33N 35°30' E 139°44'0 0.0
2014-Jul-22 16:33N 35°30' E 139°44'0 0.0
2014-Jul-22 15:33N 35°30' E 139°44'  
Track history (hours):
 
Tides and Currents Weather Stations Pressure Air Temp Water Temp Dewpoint Dewpoint Depression Visibility Wind Speed Wind Dir Waves Ship Positions

Federal Oshima

Last reported at 2014-Aug-01 15:31 UTC. Time now 2014-Aug-01 15:56 UTC.
Position N 34°37' E 135°15'.

Length 200 m; draft 7.3 m.

Type: Cargo ship. MMSI: 477675000.

Date/timePositionNaut miles runAvg speedWind from/ knotsBaromVisibWave heightAir tempDewpointWater temp
2014-Aug-01 15:31N 34°37' E 135°15'0 0.0
2014-Aug-01 14:25N 34°37' E 135°15'0 0.0
2014-Aug-01 13:31N 34°37' E 135°15'0 0.0
2014-Aug-01 12:31N 34°37' E 135°15'0 0.0
2014-Aug-01 11:31N 34°37' E 135°15'0 0.0
2014-Aug-01 10:31N 34°37' E 135°15'0 0.2
2014-Aug-01 09:33N 34°37' E 135°15'7 7.2
2014-Aug-01 08:33N 34°30' E 135°13'1312.6
2014-Aug-01 07:33N 34°21' E 135°03'1111.0
2014-Aug-01 06:33N 34°10' E 135°00'10 9.9
2014-Aug-01 05:33N 34°00' E 134°60'184 8.7
2014-Jul-31 08:29N 35°01' E 138°30'0 0.0
2014-Jul-31 06:18N 35°01' E 138°30'0 0.0
2014-Jul-31 05:30N 35°01' E 138°30'0 0.0
2014-Jul-31 04:30N 35°01' E 138°30'0 0.0
2014-Jul-31 03:12N 35°01' E 138°30'0 0.0
2014-Jul-31 02:30N 35°01' E 138°30'0 0.0
2014-Jul-31 00:24N 35°01' E 138°30'0 0.0
2014-Jul-30 23:24N 35°01' E 138°30'0 0.0
2014-Jul-30 22:18N 35°01' E 138°30'0 0.0
2014-Jul-30 21:30N 35°01' E 138°30'0 0.0
2014-Jul-30 20:30N 35°01' E 138°30'0 0.0
2014-Jul-30 16:12N 35°01' E 138°30'0 0.0
2014-Jul-30 07:24N 35°01' E 138°30'0 0.0
2014-Jul-30 06:18N 35°01' E 138°30'5 0.5
2014-Jul-29 21:06N 34°60' E 138°35'  
2014-Jul-26 13:14N 35°02' E 138°33'6 9.1
2014-Jul-26 12:33N 34°56' E 138°35'35 6.9
2014-Jul-26 07:31N 34°50' E 139°17'1210.7
2014-Jul-26 06:26N 34°57' E 139°28'1010.9
2014-Jul-26 05:33N 35°03' E 139°37'1211.9
2014-Jul-26 04:33N 35°12' E 139°46'1010.3
2014-Jul-26 03:34N 35°22' E 139°43'4 3.7
2014-Jul-26 02:31N 35°26' E 139°43'0 0.1
2014-Jul-26 01:31N 35°26' E 139°43'0 0.1
2014-Jul-26 00:31N 35°26' E 139°43'0 0.0
2014-Jul-25 23:31N 35°26' E 139°43'0 0.0
2014-Jul-25 22:31N 35°26' E 139°43'0 0.0
2014-Jul-25 21:31N 35°26' E 139°43'0 0.1
2014-Jul-25 20:31N 35°26' E 139°43'0 0.1
2014-Jul-25 19:31N 35°26' E 139°43'0 0.1
2014-Jul-25 18:31N 35°26' E 139°43'1 0.9
2014-Jul-25 17:33N 35°26' E 139°44'4 4.3
2014-Jul-25 16:33N 35°30' E 139°45'1 0.8
2014-Jul-25 15:33N 35°30' E 139°44'0 0.0
2014-Jul-25 14:33N 35°30' E 139°44'0 0.0
2014-Jul-25 13:33N 35°30' E 139°44'0 0.0
2014-Jul-25 12:33N 35°30' E 139°44'0 0.0
2014-Jul-25 11:33N 35°30' E 139°44'0 0.0
2014-Jul-25 10:33N 35°30' E 139°44'0 0.0
2014-Jul-25 09:33N 35°30' E 139°44'0 0.0
2014-Jul-25 08:33N 35°30' E 139°44'0 0.0
2014-Jul-25 07:33N 35°30' E 139°44'0 0.0
2014-Jul-25 06:33N 35°30' E 139°44'0 0.0
2014-Jul-25 05:33N 35°30' E 139°44'0 0.0
2014-Jul-25 04:33N 35°30' E 139°44'0 0.0
2014-Jul-25 03:30N 35°30' E 139°44'0 0.0
2014-Jul-25 02:33N 35°30' E 139°44'0 0.0
2014-Jul-25 01:33N 35°30' E 139°44'0 0.0
2014-Jul-25 00:30N 35°30' E 139°44'0 0.0
2014-Jul-24 23:33N 35°30' E 139°44'0 0.0
2014-Jul-24 22:33N 35°30' E 139°44'0 0.0
2014-Jul-24 21:33N 35°30' E 139°44'0 0.0
2014-Jul-24 20:33N 35°30' E 139°44'0 0.0
2014-Jul-24 19:33N 35°30' E 139°44'0 0.0
2014-Jul-24 18:33N 35°30' E 139°44'0 0.0
2014-Jul-24 17:33N 35°30' E 139°44'0 0.0
2014-Jul-24 16:30N 35°30' E 139°44'0 0.0
2014-Jul-24 15:33N 35°30' E 139°44'0 0.0
2014-Jul-24 14:33N 35°30' E 139°44'0 0.0
2014-Jul-24 13:33N 35°30' E 139°44'0 0.0
2014-Jul-24 12:33N 35°30' E 139°44'0 0.0
2014-Jul-24 11:33N 35°30' E 139°44'0 0.0
2014-Jul-24 10:33N 35°30' E 139°44'0 0.0
2014-Jul-24 09:33N 35°30' E 139°44'0 0.0
2014-Jul-24 08:33N 35°30' E 139°44'0 0.0
2014-Jul-24 07:33N 35°30' E 139°44'0 0.0
2014-Jul-24 06:33N 35°30' E 139°44'0 0.0
2014-Jul-24 05:30N 35°30' E 139°44'0 0.0
2014-Jul-24 04:33N 35°30' E 139°44'0 0.0
2014-Jul-24 03:33N 35°30' E 139°44'0 0.0
2014-Jul-24 02:27N 35°30' E 139°44'0 0.0
2014-Jul-24 01:33N 35°30' E 139°44'0 0.0
2014-Jul-24 00:30N 35°30' E 139°44'0 0.0
2014-Jul-23 23:33N 35°30' E 139°44'0 0.0
2014-Jul-23 22:33N 35°30' E 139°44'0 0.0
2014-Jul-23 21:33N 35°30' E 139°44'0 0.0
2014-Jul-23 20:33N 35°30' E 139°44'0 0.0
2014-Jul-23 19:33N 35°30' E 139°44'0 0.0
2014-Jul-23 18:33N 35°30' E 139°44'0 0.0
2014-Jul-23 17:33N 35°30' E 139°44'0 0.0
2014-Jul-23 16:33N 35°30' E 139°44'0 0.0
2014-Jul-23 15:33N 35°30' E 139°44'0 0.0
2014-Jul-23 14:33N 35°30' E 139°44'0 0.0
2014-Jul-23 13:33N 35°30' E 139°44'0 0.0
2014-Jul-23 12:33N 35°30' E 139°44'0 0.0
2014-Jul-23 11:33N 35°30' E 139°44'0 0.0
2014-Jul-23 10:33N 35°30' E 139°44'0 0.0
2014-Jul-23 09:33N 35°30' E 139°44'0 0.0
2014-Jul-23 08:30N 35°30' E 139°44'0 0.0
2014-Jul-23 07:33N 35°30' E 139°44'0 0.0
2014-Jul-23 06:33N 35°30' E 139°44'0 0.0
2014-Jul-23 05:33N 35°30' E 139°44'0 0.0
2014-Jul-23 04:33N 35°30' E 139°44'0 0.0
2014-Jul-23 03:33N 35°30' E 139°44'0 0.0
2014-Jul-23 02:33N 35°30' E 139°44'0 0.0
2014-Jul-23 01:33N 35°30' E 139°44'0 0.0
2014-Jul-23 00:33N 35°30' E 139°44'0 0.0
2014-Jul-22 23:33N 35°30' E 139°44'0 0.0
2014-Jul-22 22:33N 35°30' E 139°44'0 0.0
2014-Jul-22 21:33N 35°30' E 139°44'0 0.0
2014-Jul-22 20:33N 35°30' E 139°44'0 0.0
2014-Jul-22 19:33N 35°30' E 139°44'0 0.0
2014-Jul-22 18:33N 35°30' E 139°44'0 0.0
2014-Jul-22 17:33N 35°30' E 139°44'0 0.0
2014-Jul-22 16:33N 35°30' E 139°44'0 0.0
2014-Jul-22 15:33N 35°30' E 139°44'  

Dump ship's entire track history